Thunder radar more information blitzortung!


Radar de pluja more information rain snow radar


Visita la nostra xarxa de llocs de meteo:

Template documentation
and downloads

And another site



No particular awareness of the weather is required.    There are no Weather-warnings

Pagina Historial Weather Underground text

Diari Resum May 16, 2017 Unitats:  Tant    Imperial   Mètric
« Previous Dia
SegĂźent Dia »
Diari Setmana Mensual Anual Personalitzada
  Maxima: Minima: Media:
Temperatura: 84.9 °F /  29.4 °C 58.8 °F /  14.9 °C 73.6 °F /  23.1 °C
Punt de rosada: 55.9 °F /  13.3 °C 42.3 °F /  5.7 °C 49.5 °F /  9.7 °C
Humitat: 72 % 28 % 45 %
Wind Speed: 13.8 mph /  22.2 km/h - 4.1 mph /  6.6 km/h
RĂ fegues de vent: 13.8 mph /  22.2 km/h - -
Vent:- - SSE
Pression baro: 30.3 in /  1026.0 hPa 30.2 in /  1022.9 hPa -
Precipitacions: 0 in /  0.0 mm    
Historical Graphs
 
 
Dades de taula per May 16, 2017
Temps Temperatura Punt de rosada Pression baro Vent Wind Speed RĂ fegues de vent Humitat Rainfall Rate (Hourly)
00:03 65.1 °F /  18.4 °C 50.4 °F /  10.2 °C 30.3 in /  1026.0 hPa Calm     59 % 0 in /  0.0 mm
00:05 60.1 °F /  15.6 °C 50.4 °F /  10.2 °C 30.3 in /  1026.0 hPa Calm   1 mph /  1.6 km/h 70 % 0 in /  0.0 mm
00:15 59.7 °F /  15.4 °C 49.8 °F /  9.9 °C 30.3 in /  1026.0 hPa Calm     70 % 0 in /  0.0 mm
00:25 59.5 °F /  15.3 °C 49.6 °F /  9.8 °C 30.3 in /  1026.0 hPa Calm     70 % 0 in /  0.0 mm
00:35 59.5 °F /  15.3 °C 49.6 °F /  9.8 °C 30.3 in /  1026.0 hPa Calm   1 mph /  1.6 km/h 70 % 0 in /  0.0 mm
00:45 59.5 °F /  15.3 °C 49.6 °F /  9.8 °C 30.3 in /  1026.0 hPa Calm   2 mph /  3.2 km/h 70 % 0 in /  0.0 mm
01:05 59.5 °F /  15.3 °C 49.6 °F /  9.8 °C 30.3 in /  1026.0 hPa Calm     70 % 0 in /  0.0 mm
01:15 59.4 °F /  15.2 °C 50 °F /  10.0 °C 30.3 in /  1024.9 hPa Calm   1 mph /  1.6 km/h 71 % 0 in /  0.0 mm
01:25 58.8 °F /  14.9 °C 49.1 °F /  9.5 °C 30.3 in /  1026.0 hPa WSW 1 mph /  1.6 km/h 1 mph /  1.6 km/h 70 % 0 in /  0.0 mm
01:35 58.8 °F /  14.9 °C 49.1 °F /  9.5 °C 30.3 in /  1026.0 hPa WSW 2 mph /  3.2 km/h 2 mph /  3.2 km/h 70 % 0 in /  0.0 mm
01:45 58.8 °F /  14.9 °C 49.1 °F /  9.5 °C 30.3 in /  1026.0 hPa WSW 2 mph /  3.2 km/h 2 mph /  3.2 km/h 70 % 0 in /  0.0 mm
01:55 58.8 °F /  14.9 °C 49.5 °F /  9.7 °C 30.3 in /  1026.0 hPa Calm   2 mph /  3.2 km/h 71 % 0 in /  0.0 mm
02:05 58.8 °F /  14.9 °C 49.8 °F /  9.9 °C 30.3 in /  1026.0 hPa Calm     72 % 0 in /  0.0 mm
02:15 59.7 °F /  15.4 °C 50.7 °F /  10.4 °C 30.3 in /  1026.0 hPa Calm   1 mph /  1.6 km/h 72 % 0 in /  0.0 mm
02:25 60.4 °F /  15.8 °C 51.1 °F /  10.6 °C 30.3 in /  1026.0 hPa Calm     71 % 0 in /  0.0 mm
02:35 61.2 °F /  16.2 °C 51.6 °F /  10.9 °C 30.3 in /  1026.0 hPa Calm     71 % 0 in /  0.0 mm
02:45 61.3 °F /  16.3 °C 51.4 °F /  10.8 °C 30.3 in /  1026.0 hPa SSE 1 mph /  1.6 km/h 1 mph /  1.6 km/h 70 % 0 in /  0.0 mm
02:55 62.4 °F /  16.9 °C 52.2 °F /  11.2 °C 30.3 in /  1026.0 hPa East 1 mph /  1.6 km/h 2 mph /  3.2 km/h 69 % 0 in /  0.0 mm
03:05 62.2 °F /  16.8 °C 51.4 °F /  10.8 °C 30.3 in /  1026.0 hPa ESE 1 mph /  1.6 km/h 2 mph /  3.2 km/h 68 % 0 in /  0.0 mm
03:15 62.2 °F /  16.8 °C 51.4 °F /  10.8 °C 30.3 in /  1026.0 hPa SSW 1 mph /  1.6 km/h 2 mph /  3.2 km/h 68 % 0 in /  0.0 mm
03:25 62.4 °F /  16.9 °C 51.6 °F /  10.9 °C 30.3 in /  1026.0 hPa SW 1 mph /  1.6 km/h 2 mph /  3.2 km/h 68 % 0 in /  0.0 mm
03:35 63.1 °F /  17.3 °C 51.6 °F /  10.9 °C 30.3 in /  1026.0 hPa SW 2 mph /  3.2 km/h 3 mph /  4.8 km/h 66 % 0 in /  0.0 mm
03:45 65.8 °F /  18.8 °C 54.1 °F /  12.3 °C 30.3 in /  1026.0 hPa SSW 1 mph /  1.6 km/h 1 mph /  1.6 km/h 66 % 0 in /  0.0 mm
03:55 66.2 °F /  19.0 °C 52.9 °F /  11.6 °C 30.3 in /  1026.0 hPa SSW 1 mph /  1.6 km/h 2 mph /  3.2 km/h 62 % 0 in /  0.0 mm
04:05 67.1 °F /  19.5 °C 53.6 °F /  12.0 °C 30.3 in /  1026.0 hPa SW 1 mph /  1.6 km/h 2 mph /  3.2 km/h 62 % 0 in /  0.0 mm
04:15 69.3 °F /  20.7 °C 54.9 °F /  12.7 °C 30.3 in /  1026.0 hPa South 1 mph /  1.6 km/h 2 mph /  3.2 km/h 60 % 0 in /  0.0 mm
04:25 69.8 °F /  21.0 °C 54.3 °F /  12.4 °C 30.3 in /  1026.0 hPa ENE 1 mph /  1.6 km/h 3 mph /  4.8 km/h 58 % 0 in /  0.0 mm
04:35 70.5 °F /  21.4 °C 55 °F /  12.8 °C 30.3 in /  1026.0 hPa NE 1 mph /  1.6 km/h 3 mph /  4.8 km/h 58 % 0 in /  0.0 mm
04:45 70.2 °F /  21.2 °C 54.1 °F /  12.3 °C 30.3 in /  1026.0 hPa ENE 2 mph /  3.2 km/h 3 mph /  4.8 km/h 57 % 0 in /  0.0 mm
04:55 70.5 °F /  21.4 °C 54.5 °F /  12.5 °C 30.3 in /  1026.0 hPa NE 5 mph /  8.0 km/h 6 mph /  9.7 km/h 57 % 0 in /  0.0 mm
05:05 72 °F /  22.2 °C 54.9 °F /  12.7 °C 30.3 in /  1026.0 hPa NE 2 mph /  3.2 km/h 4 mph /  6.4 km/h 55 % 0 in /  0.0 mm
05:15 72.9 °F /  22.7 °C 55.8 °F /  13.2 °C 30.3 in /  1026.0 hPa ENE 1 mph /  1.6 km/h 3 mph /  4.8 km/h 55 % 0 in /  0.0 mm
05:25 73.8 °F /  23.2 °C 55.6 °F /  13.1 °C 30.3 in /  1026.0 hPa NE 1 mph /  1.6 km/h 4 mph /  6.4 km/h 53 % 0 in /  0.0 mm
05:35 73.9 °F /  23.3 °C 54.1 °F /  12.3 °C 30.3 in /  1026.0 hPa NNE 3 mph /  4.8 km/h 4 mph /  6.4 km/h 50 % 0 in /  0.0 mm
05:45 75.4 °F /  24.1 °C 55.4 °F /  13.0 °C 30.3 in /  1026.0 hPa East 2 mph /  3.2 km/h 3 mph /  4.8 km/h 50 % 0 in /  0.0 mm
10:46 75.4 °F /  24.1 °C 55.4 °F /  13.0 °C 30.3 in /  1026.0 hPa ENE 1.2 mph /  1.9 km/h   50 % 0 in /  0.0 mm
10:51 75.6 °F /  24.2 °C 55.6 °F /  13.1 °C 30.3 in /  1026.0 hPa NNE 4.6 mph /  7.4 km/h 4.6 mph /  7.4 km/h 50 % 0 in /  0.0 mm
10:56 76.1 °F /  24.5 °C 55.6 °F /  13.1 °C 30.3 in /  1026.0 hPa NE 4.6 mph /  7.4 km/h 4.6 mph /  7.4 km/h 49 % 0 in /  0.0 mm
11:01 75.9 °F /  24.4 °C 55.4 °F /  13.0 °C 30.3 in /  1026.0 hPa ENE 4.9 mph /  7.9 km/h 4.9 mph /  7.9 km/h 49 % 0 in /  0.0 mm
11:06 75.9 °F /  24.4 °C 54.9 °F /  12.7 °C 30.3 in /  1026.0 hPa ESE 3.5 mph /  5.6 km/h 3.5 mph /  5.6 km/h 48 % 0 in /  0.0 mm
11:11 76.6 °F /  24.8 °C 55.6 °F /  13.1 °C 30.3 in /  1026.0 hPa ENE 5.8 mph /  9.3 km/h 5.8 mph /  9.3 km/h 48 % 0 in /  0.0 mm
11:16 77.2 °F /  25.1 °C 55.9 °F /  13.3 °C 30.3 in /  1026.0 hPa NNE 3.5 mph /  5.6 km/h 3.5 mph /  5.6 km/h 48 % 0 in /  0.0 mm
11:21 77 °F /  25.0 °C 55.2 °F /  12.9 °C 30.3 in /  1026.0 hPa East 3.5 mph /  5.6 km/h 3.5 mph /  5.6 km/h 47 % 0 in /  0.0 mm
11:26 77.2 °F /  25.1 °C 55.4 °F /  13.0 °C 30.3 in /  1026.0 hPa East 5.8 mph /  9.3 km/h 5.8 mph /  9.3 km/h 47 % 0 in /  0.0 mm
11:31 76.8 °F /  24.9 °C 55 °F /  12.8 °C 30.3 in /  1026.0 hPa East 5.8 mph /  9.3 km/h 5.8 mph /  9.3 km/h 47 % 0 in /  0.0 mm
11:36 77 °F /  25.0 °C 54.7 °F /  12.6 °C 30.3 in /  1026.0 hPa ENE 6.9 mph /  11.1 km/h 6.9 mph /  11.1 km/h 46 % 0 in /  0.0 mm
11:41 77.4 °F /  25.2 °C 55 °F /  12.8 °C 30.3 in /  1024.9 hPa ENE 4.6 mph /  7.4 km/h 4.6 mph /  7.4 km/h 46 % 0 in /  0.0 mm
11:46 78.1 °F /  25.6 °C 55.6 °F /  13.1 °C 30.3 in /  1024.9 hPa ESE 5.8 mph /  9.3 km/h 5.8 mph /  9.3 km/h 46 % 0 in /  0.0 mm
11:51 78.4 °F /  25.8 °C 55.2 °F /  12.9 °C 30.3 in /  1024.9 hPa ENE 4.6 mph /  7.4 km/h 4.6 mph /  7.4 km/h 45 % 0 in /  0.0 mm
11:56 79 °F /  26.1 °C 55.8 °F /  13.2 °C 30.3 in /  1026.0 hPa ESE 5.9 mph /  9.5 km/h 5.9 mph /  9.5 km/h 45 % 0 in /  0.0 mm
12:01 79.2 °F /  26.2 °C 55.9 °F /  13.3 °C 30.3 in /  1026.0 hPa ESE 4.6 mph /  7.4 km/h 4.6 mph /  7.4 km/h 45 % 0 in /  0.0 mm
12:06 79.7 °F /  26.5 °C 55.9 °F /  13.3 °C 30.3 in /  1026.0 hPa SE 4.6 mph /  7.4 km/h 4.6 mph /  7.4 km/h 44 % 0 in /  0.0 mm
12:11 79.7 °F /  26.5 °C 55.9 °F /  13.3 °C 30.3 in /  1026.0 hPa NNE 4.6 mph /  7.4 km/h 4.6 mph /  7.4 km/h 44 % 0 in /  0.0 mm
12:16 79.5 °F /  26.4 °C 54.3 °F /  12.4 °C 30.3 in /  1026.0 hPa North 3.1 mph /  5.0 km/h 3.1 mph /  5.0 km/h 42 % 0 in /  0.0 mm
12:21 80.8 °F /  27.1 °C 54.9 °F /  12.7 °C 30.3 in /  1026.0 hPa SSE 4.6 mph /  7.4 km/h 4.6 mph /  7.4 km/h 41 % 0 in /  0.0 mm
12:26 80.4 °F /  26.9 °C 54.7 °F /  12.6 °C 30.3 in /  1026.0 hPa SE 6 mph /  9.7 km/h 6 mph /  9.7 km/h 41 % 0 in /  0.0 mm
12:31 79.9 °F /  26.6 °C 54.1 °F /  12.3 °C 30.3 in /  1026.0 hPa ESE 4.6 mph /  7.4 km/h 4.6 mph /  7.4 km/h 41 % 0 in /  0.0 mm
12:36 79.9 °F /  26.6 °C 54.1 °F /  12.3 °C 30.3 in /  1026.0 hPa SE 8.1 mph /  13.0 km/h 8.1 mph /  13.0 km/h 41 % 0 in /  0.0 mm
12:41 80.1 °F /  26.7 °C 54.1 °F /  12.3 °C 30.3 in /  1026.0 hPa NE 5.8 mph /  9.3 km/h 5.8 mph /  9.3 km/h 41 % 0 in /  0.0 mm
12:46 80.1 °F /  26.7 °C 54.1 °F /  12.3 °C 30.3 in /  1026.0 hPa ENE 9.2 mph /  14.8 km/h 9.2 mph /  14.8 km/h 41 % 0 in /  0.0 mm
12:51 80.8 °F /  27.1 °C 54.9 °F /  12.7 °C 30.3 in /  1026.0 hPa ENE 5.9 mph /  9.5 km/h 5.9 mph /  9.5 km/h 41 % 0 in /  0.0 mm
12:56 80.8 °F /  27.1 °C 54.1 °F /  12.3 °C 30.3 in /  1024.9 hPa East 6 mph /  9.7 km/h 6 mph /  9.7 km/h 40 % 0 in /  0.0 mm
13:01 80.8 °F /  27.1 °C 54.1 °F /  12.3 °C 30.3 in /  1024.9 hPa ESE 5.8 mph /  9.3 km/h 5.8 mph /  9.3 km/h 40 % 0 in /  0.0 mm
13:06 80.2 °F /  26.8 °C 53.8 °F /  12.1 °C 30.3 in /  1024.9 hPa SE 6.9 mph /  11.1 km/h 6.9 mph /  11.1 km/h 40 % 0 in /  0.0 mm
13:11 80.2 °F /  26.8 °C 53.8 °F /  12.1 °C 30.3 in /  1026.0 hPa SE 8.1 mph /  13.0 km/h 8.1 mph /  13.0 km/h 40 % 0 in /  0.0 mm
13:16 80.1 °F /  26.7 °C 53.6 °F /  12.0 °C 30.3 in /  1026.0 hPa ESE 9.7 mph /  15.6 km/h 9.7 mph /  15.6 km/h 40 % 0 in /  0.0 mm
13:21 79.5 °F /  26.4 °C 53.1 °F /  11.7 °C 30.3 in /  1026.0 hPa East 11.5 mph /  18.5 km/h 11.5 mph /  18.5 km/h 40 % 0 in /  0.0 mm
13:26 79.7 °F /  26.5 °C 53.2 °F /  11.8 °C 30.3 in /  1024.9 hPa SE 9.8 mph /  15.8 km/h 9.8 mph /  15.8 km/h 40 % 0 in /  0.0 mm
13:31 79.7 °F /  26.5 °C 53.2 °F /  11.8 °C 30.3 in /  1024.9 hPa ENE 10.4 mph /  16.7 km/h 10.4 mph /  16.7 km/h 40 % 0 in /  0.0 mm
13:36 80.1 °F /  26.7 °C 53.6 °F /  12.0 °C 30.3 in /  1024.9 hPa SSE 8.1 mph /  13.0 km/h 8.1 mph /  13.0 km/h 40 % 0 in /  0.0 mm
13:41 79.5 °F /  26.4 °C 52.3 °F /  11.3 °C 30.2 in /  1023.9 hPa ESE 10.5 mph /  16.9 km/h 10.5 mph /  16.9 km/h 39 % 0 in /  0.0 mm
13:46 80.1 °F /  26.7 °C 53.6 °F /  12.0 °C 30.2 in /  1023.9 hPa East 5.8 mph /  9.3 km/h 5.8 mph /  9.3 km/h 40 % 0 in /  0.0 mm
13:51 79.7 °F /  26.5 °C 52.5 °F /  11.4 °C 30.2 in /  1023.9 hPa East 8.1 mph /  13.0 km/h 8.1 mph /  13.0 km/h 39 % 0 in /  0.0 mm
13:56 79.5 °F /  26.4 °C 52.3 °F /  11.3 °C 30.2 in /  1023.9 hPa SE 9.2 mph /  14.8 km/h 9.2 mph /  14.8 km/h 39 % 0 in /  0.0 mm
14:01 80.2 °F /  26.8 °C 53.1 °F /  11.7 °C 30.2 in /  1023.9 hPa SE 10.9 mph /  17.5 km/h 10.9 mph /  17.5 km/h 39 % 0 in /  0.0 mm
14:06 80.8 °F /  27.1 °C 53.4 °F /  11.9 °C 30.2 in /  1023.9 hPa ESE 10 mph /  16.1 km/h 10 mph /  16.1 km/h 39 % 0 in /  0.0 mm
14:11 79.5 °F /  26.4 °C 52.3 °F /  11.3 °C 30.2 in /  1023.9 hPa NNE 11.5 mph /  18.5 km/h 11.5 mph /  18.5 km/h 39 % 0 in /  0.0 mm
14:16 79.7 °F /  26.5 °C 52.5 °F /  11.4 °C 30.2 in /  1023.9 hPa ESE 9.2 mph /  14.8 km/h 9.2 mph /  14.8 km/h 39 % 0 in /  0.0 mm
14:21 79.2 °F /  26.2 °C 52.2 °F /  11.2 °C 30.2 in /  1023.9 hPa ESE 12.7 mph /  20.4 km/h 12.7 mph /  20.4 km/h 39 % 0 in /  0.0 mm
14:26 79 °F /  26.1 °C 52 °F /  11.1 °C 30.2 in /  1023.9 hPa ESE 10.4 mph /  16.7 km/h 10.4 mph /  16.7 km/h 39 % 0 in /  0.0 mm
14:31 79.3 °F /  26.3 °C 52.2 °F /  11.2 °C 30.2 in /  1023.9 hPa ESE 5.8 mph /  9.3 km/h 5.8 mph /  9.3 km/h 39 % 0 in /  0.0 mm
14:36 78.8 °F /  26.0 °C 51.6 °F /  10.9 °C 30.2 in /  1023.9 hPa ESE 9.7 mph /  15.6 km/h 9.7 mph /  15.6 km/h 39 % 0 in /  0.0 mm
14:41 78.8 °F /  26.0 °C 51.6 °F /  10.9 °C 30.2 in /  1023.9 hPa ESE 12.7 mph /  20.4 km/h 12.7 mph /  20.4 km/h 39 % 0 in /  0.0 mm
14:46 79.2 °F /  26.2 °C 52.9 °F /  11.6 °C 30.2 in /  1023.9 hPa ESE 8.1 mph /  13.0 km/h 8.1 mph /  13.0 km/h 40 % 0 in /  0.0 mm
14:51 79.3 °F /  26.3 °C 52.9 °F /  11.6 °C 30.2 in /  1023.9 hPa ESE 10 mph /  16.1 km/h 10 mph /  16.1 km/h 40 % 0 in /  0.0 mm
14:56 79.3 °F /  26.3 °C 52.9 °F /  11.6 °C 30.2 in /  1023.9 hPa ENE 9.2 mph /  14.8 km/h 9.2 mph /  14.8 km/h 40 % 0 in /  0.0 mm
15:01 79.2 °F /  26.2 °C 52.9 °F /  11.6 °C 30.2 in /  1023.9 hPa ENE 9.2 mph /  14.8 km/h 9.2 mph /  14.8 km/h 40 % 0 in /  0.0 mm
15:06 79.3 °F /  26.3 °C 52.9 °F /  11.6 °C 30.2 in /  1023.9 hPa ESE 4.6 mph /  7.4 km/h 4.6 mph /  7.4 km/h 40 % 0 in /  0.0 mm
15:11 79.3 °F /  26.3 °C 52.9 °F /  11.6 °C 30.2 in /  1023.9 hPa ESE 6.9 mph /  11.1 km/h 6.9 mph /  11.1 km/h 40 % 0 in /  0.0 mm
15:16 79 °F /  26.1 °C 52.5 °F /  11.4 °C 30.2 in /  1023.9 hPa ENE 8.1 mph /  13.0 km/h 8.1 mph /  13.0 km/h 40 % 0 in /  0.0 mm
15:21 79 °F /  26.1 °C 52.5 °F /  11.4 °C 30.2 in /  1023.9 hPa ENE 9.2 mph /  14.8 km/h 9.2 mph /  14.8 km/h 40 % 0 in /  0.0 mm
15:26 79.3 °F /  26.3 °C 52.9 °F /  11.6 °C 30.2 in /  1023.9 hPa ENE 10.4 mph /  16.7 km/h 10.4 mph /  16.7 km/h 40 % 0 in /  0.0 mm
15:31 79.2 °F /  26.2 °C 52.9 °F /  11.6 °C 30.2 in /  1023.9 hPa ESE 8.1 mph /  13.0 km/h 8.1 mph /  13.0 km/h 40 % 0 in /  0.0 mm
15:36 79 °F /  26.1 °C 52.5 °F /  11.4 °C 30.2 in /  1023.9 hPa NNE 5.8 mph /  9.3 km/h 5.8 mph /  9.3 km/h 40 % 0 in /  0.0 mm
15:37 79 °F /  26.1 °C 53.2 °F /  11.8 °C 30.2 in /  1023.9 hPa NNE 5.8 mph /  9.3 km/h 5.8 mph /  9.3 km/h 41 % 0 in /  0.0 mm
15:42 79.9 °F /  26.6 °C 53.4 °F /  11.9 °C 30.2 in /  1023.9 hPa SW 5.8 mph /  9.3 km/h 5.8 mph /  9.3 km/h 40 % 0 in /  0.0 mm
15:47 83.1 °F /  28.4 °C 54.9 °F /  12.7 °C 30.2 in /  1023.9 hPa ESE 3.5 mph /  5.6 km/h 3.5 mph /  5.6 km/h 38 % 0 in /  0.0 mm
15:52 83.3 °F /  28.5 °C 53.6 °F /  12.0 °C 30.2 in /  1023.9 hPa South 5.8 mph /  9.3 km/h 5.8 mph /  9.3 km/h 36 % 0 in /  0.0 mm
15:57 84.6 °F /  29.2 °C 54 °F /  12.2 °C 30.2 in /  1023.9 hPa SSE 3.6 mph /  5.8 km/h 3.6 mph /  5.8 km/h 35 % 0 in /  0.0 mm
16:02 84.9 °F /  29.4 °C 53.4 °F /  11.9 °C 30.2 in /  1023.9 hPa SSE 8.1 mph /  13.0 km/h 8.1 mph /  13.0 km/h 34 % 0 in /  0.0 mm
16:07 84.2 °F /  29.0 °C 50.4 °F /  10.2 °C 30.2 in /  1023.9 hPa WSW 9.7 mph /  15.6 km/h 9.7 mph /  15.6 km/h 31 % 0 in /  0.0 mm
16:12 84.6 °F /  29.2 °C 50.5 °F /  10.3 °C 30.2 in /  1023.9 hPa SW 6.9 mph /  11.1 km/h 6.9 mph /  11.1 km/h 31 % 0 in /  0.0 mm
16:17 84.7 °F /  29.3 °C 50.7 °F /  10.4 °C 30.2 in /  1023.9 hPa SW 6.9 mph /  11.1 km/h 6.9 mph /  11.1 km/h 31 % 0 in /  0.0 mm
16:22 84.7 °F /  29.3 °C 49.8 °F /  9.9 °C 30.2 in /  1023.9 hPa SW 6.2 mph /  10.0 km/h 6.2 mph /  10.0 km/h 30 % 0 in /  0.0 mm
16:27 84.7 °F /  29.3 °C 48.9 °F /  9.4 °C 30.2 in /  1023.9 hPa ESE 6.9 mph /  11.1 km/h 6.9 mph /  11.1 km/h 29 % 0 in /  0.0 mm
16:32 84.9 °F /  29.4 °C 49.1 °F /  9.5 °C 30.2 in /  1023.9 hPa SSW 6.9 mph /  11.1 km/h 6.9 mph /  11.1 km/h 29 % 0 in /  0.0 mm
16:37 84.7 °F /  29.3 °C 48 °F /  8.9 °C 30.2 in /  1023.9 hPa SW 8.5 mph /  13.7 km/h 8.5 mph /  13.7 km/h 28 % 0 in /  0.0 mm
16:42 84 °F /  28.9 °C 48.4 °F /  9.1 °C 30.2 in /  1023.9 hPa SW 8.1 mph /  13.0 km/h 8.1 mph /  13.0 km/h 29 % 0 in /  0.0 mm
16:47 83.7 °F /  28.7 °C 48 °F /  8.9 °C 30.2 in /  1023.9 hPa SW 8.1 mph /  13.0 km/h 8.1 mph /  13.0 km/h 29 % 0 in /  0.0 mm
16:52 84.2 °F /  29.0 °C 47.7 °F /  8.7 °C 30.2 in /  1023.9 hPa South 5.8 mph /  9.3 km/h 5.8 mph /  9.3 km/h 28 % 0 in /  0.0 mm
16:57 84.2 °F /  29.0 °C 47.7 °F /  8.7 °C 30.2 in /  1022.9 hPa WSW 4.6 mph /  7.4 km/h 4.6 mph /  7.4 km/h 28 % 0 in /  0.0 mm
17:02 84.4 °F /  29.1 °C 47.7 °F /  8.7 °C 30.2 in /  1022.9 hPa SW 8.1 mph /  13.0 km/h 8.1 mph /  13.0 km/h 28 % 0 in /  0.0 mm
17:07 83.5 °F /  28.6 °C 46.9 °F /  8.3 °C 30.2 in /  1022.9 hPa SW 11.5 mph /  18.5 km/h 11.5 mph /  18.5 km/h 28 % 0 in /  0.0 mm
17:12 83.1 °F /  28.4 °C 46.6 °F /  8.1 °C 30.2 in /  1023.9 hPa WSW 11.5 mph /  18.5 km/h 11.5 mph /  18.5 km/h 28 % 0 in /  0.0 mm
17:17 82.8 °F /  28.2 °C 46.2 °F /  7.9 °C 30.2 in /  1023.9 hPa SW 10.4 mph /  16.7 km/h 10.4 mph /  16.7 km/h 28 % 0 in /  0.0 mm
17:22 82.8 °F /  28.2 °C 46.2 °F /  7.9 °C 30.2 in /  1023.9 hPa South 12.7 mph /  20.4 km/h 12.7 mph /  20.4 km/h 28 % 0 in /  0.0 mm
17:27 83.3 °F /  28.5 °C 46.8 °F /  8.2 °C 30.2 in /  1023.9 hPa SW 3.5 mph /  5.6 km/h 3.5 mph /  5.6 km/h 28 % 0 in /  0.0 mm
17:32 83.5 °F /  28.6 °C 46.9 °F /  8.3 °C 30.2 in /  1023.9 hPa SW 5.6 mph /  9.0 km/h 5.6 mph /  9.0 km/h 28 % 0 in /  0.0 mm
17:37 82.8 °F /  28.2 °C 46.2 °F /  7.9 °C 30.2 in /  1023.9 hPa SSW 8.1 mph /  13.0 km/h 8.1 mph /  13.0 km/h 28 % 0 in /  0.0 mm
17:42 83.3 °F /  28.5 °C 46.8 °F /  8.2 °C 30.2 in /  1023.9 hPa SW 8.1 mph /  13.0 km/h 8.1 mph /  13.0 km/h 28 % 0 in /  0.0 mm
17:47 83.3 °F /  28.5 °C 46.8 °F /  8.2 °C 30.2 in /  1023.9 hPa SW 6.9 mph /  11.1 km/h 6.9 mph /  11.1 km/h 28 % 0 in /  0.0 mm
17:52 82.8 °F /  28.2 °C 46.2 °F /  7.9 °C 30.2 in /  1023.9 hPa SW 9.2 mph /  14.8 km/h 9.2 mph /  14.8 km/h 28 % 0 in /  0.0 mm
17:57 82.8 °F /  28.2 °C 46.2 °F /  7.9 °C 30.2 in /  1023.9 hPa WSW 8.1 mph /  13.0 km/h 8.1 mph /  13.0 km/h 28 % 0 in /  0.0 mm
18:02 82.4 °F /  28.0 °C 46.9 °F /  8.3 °C 30.2 in /  1023.9 hPa SW 13.8 mph /  22.2 km/h 13.8 mph /  22.2 km/h 29 % 0 in /  0.0 mm
18:07 82.4 °F /  28.0 °C 46 °F /  7.8 °C 30.2 in /  1023.9 hPa SSE 5.8 mph /  9.3 km/h 5.8 mph /  9.3 km/h 28 % 0 in /  0.0 mm
18:12 82.8 °F /  28.2 °C 47.3 °F /  8.5 °C 30.2 in /  1023.9 hPa SW 4.6 mph /  7.4 km/h 4.6 mph /  7.4 km/h 29 % 0 in /  0.0 mm
18:17 82.2 °F /  27.9 °C 46.8 °F /  8.2 °C 30.2 in /  1023.9 hPa SW 8.1 mph /  13.0 km/h 8.1 mph /  13.0 km/h 29 % 0 in /  0.0 mm
18:22 81.9 °F /  27.7 °C 46.6 °F /  8.1 °C 30.2 in /  1023.9 hPa SW 8.1 mph /  13.0 km/h 8.1 mph /  13.0 km/h 29 % 0 in /  0.0 mm
18:27 81.9 °F /  27.7 °C 46.6 °F /  8.1 °C 30.2 in /  1023.9 hPa WSW 6.9 mph /  11.1 km/h 6.9 mph /  11.1 km/h 29 % 0 in /  0.0 mm
18:32 81.7 °F /  27.6 °C 46.2 °F /  7.9 °C 30.2 in /  1023.9 hPa SSW 5.8 mph /  9.3 km/h 5.8 mph /  9.3 km/h 29 % 0 in /  0.0 mm
18:37 81.3 °F /  27.4 °C 45.1 °F /  7.3 °C 30.2 in /  1023.9 hPa SW 12.1 mph /  19.5 km/h 12.1 mph /  19.5 km/h 28 % 0 in /  0.0 mm
18:42 81.1 °F /  27.3 °C 45 °F /  7.2 °C 30.2 in /  1023.9 hPa SW 6.9 mph /  11.1 km/h 6.9 mph /  11.1 km/h 28 % 0 in /  0.0 mm
18:47 80.8 °F /  27.1 °C 44.6 °F /  7.0 °C 30.2 in /  1023.9 hPa SSW 5.8 mph /  9.3 km/h 5.8 mph /  9.3 km/h 28 % 0 in /  0.0 mm
18:52 81.3 °F /  27.4 °C 46 °F /  7.8 °C 30.2 in /  1023.9 hPa SW 5.8 mph /  9.3 km/h 5.8 mph /  9.3 km/h 29 % 0 in /  0.0 mm
18:57 81.1 °F /  27.3 °C 45.9 °F /  7.7 °C 30.3 in /  1024.9 hPa South 5.8 mph /  9.3 km/h 5.8 mph /  9.3 km/h 29 % 0 in /  0.0 mm
19:02 81 °F /  27.2 °C 45.7 °F /  7.6 °C 30.3 in /  1024.9 hPa SW 4.9 mph /  7.9 km/h 4.9 mph /  7.9 km/h 29 % 0 in /  0.0 mm
19:07 80.2 °F /  26.8 °C 45.1 °F /  7.3 °C 30.3 in /  1024.9 hPa SW 5.8 mph /  9.3 km/h 5.8 mph /  9.3 km/h 29 % 0 in /  0.0 mm
19:12 79.9 °F /  26.6 °C 44.8 °F /  7.1 °C 30.2 in /  1023.9 hPa South 4.6 mph /  7.4 km/h 4.6 mph /  7.4 km/h 29 % 0 in /  0.0 mm
19:15 66 °F /  18.9 °C 48.9 °F /  9.4 °C 30.3 in /  1026.0 hPa Calm   1 mph /  1.6 km/h 54 % 0 in /  0.0 mm
19:17 80.1 °F /  26.7 °C 45 °F /  7.2 °C 30.2 in /  1023.9 hPa SW 3.5 mph /  5.6 km/h 3.5 mph /  5.6 km/h 29 % 0 in /  0.0 mm
19:22 79.7 °F /  26.5 °C 44.6 °F /  7.0 °C 30.2 in /  1023.9 hPa SW 4.7 mph /  7.6 km/h 4.7 mph /  7.6 km/h 29 % 0 in /  0.0 mm
19:25 65.7 °F /  18.7 °C 49.5 °F /  9.7 °C 30.3 in /  1026.0 hPa Calm   1 mph /  1.6 km/h 56 % 0 in /  0.0 mm
19:27 79.5 °F /  26.4 °C 45.3 °F /  7.4 °C 30.2 in /  1023.9 hPa South 3.5 mph /  5.6 km/h 3.5 mph /  5.6 km/h 30 % 0 in /  0.0 mm
19:32 78.8 °F /  26.0 °C 43.9 °F /  6.6 °C 30.2 in /  1023.9 hPa WSW 6.9 mph /  11.1 km/h 6.9 mph /  11.1 km/h 29 % 0 in /  0.0 mm
19:35 65.5 °F /  18.6 °C 49.8 °F /  9.9 °C 30.3 in /  1026.0 hPa Calm     57 % 0 in /  0.0 mm
19:37 78.8 °F /  26.0 °C 43.9 °F /  6.6 °C 30.2 in /  1023.9 hPa SW 6.9 mph /  11.1 km/h 6.9 mph /  11.1 km/h 29 % 0 in /  0.0 mm
19:42 78.3 °F /  25.7 °C 43.3 °F /  6.3 °C 30.3 in /  1024.9 hPa SW 5.8 mph /  9.3 km/h 5.8 mph /  9.3 km/h 29 % 0 in /  0.0 mm
19:45 65.1 °F /  18.4 °C 50 °F /  10.0 °C 30.3 in /  1026.0 hPa Calm     58 % 0 in /  0.0 mm
19:47 77.9 °F /  25.5 °C 44.1 °F /  6.7 °C 30.3 in /  1024.9 hPa SW 5.8 mph /  9.3 km/h 5.8 mph /  9.3 km/h 30 % 0 in /  0.0 mm
19:52 77.7 °F /  25.4 °C 43.9 °F /  6.6 °C 30.3 in /  1024.9 hPa SW 6 mph /  9.7 km/h 6 mph /  9.7 km/h 30 % 0 in /  0.0 mm
19:55 64.9 °F /  18.3 °C 50.4 °F /  10.2 °C 30.3 in /  1026.0 hPa Calm   1 mph /  1.6 km/h 59 % 0 in /  0.0 mm
19:57 77.4 °F /  25.2 °C 43.5 °F /  6.4 °C 30.3 in /  1024.9 hPa WSW 4.3 mph /  6.9 km/h 4.3 mph /  6.9 km/h 30 % 0 in /  0.0 mm
20:02 77 °F /  25.0 °C 43.2 °F /  6.2 °C 30.3 in /  1024.9 hPa WSW 4.6 mph /  7.4 km/h 4.6 mph /  7.4 km/h 30 % 0 in /  0.0 mm
20:05 64.9 °F /  18.3 °C 50.7 °F /  10.4 °C 30.3 in /  1026.0 hPa NNE 1 mph /  1.6 km/h 2 mph /  3.2 km/h 60 % 0 in /  0.0 mm
20:07 76.6 °F /  24.8 °C 43.7 °F /  6.5 °C 30.3 in /  1024.9 hPa SW 5.8 mph /  9.3 km/h 5.8 mph /  9.3 km/h 31 % 0 in /  0.0 mm
20:12 76.5 °F /  24.7 °C 43.5 °F /  6.4 °C 30.3 in /  1024.9 hPa SW 4.6 mph /  7.4 km/h 4.6 mph /  7.4 km/h 31 % 0 in /  0.0 mm
20:15 64.8 °F /  18.2 °C 51.4 °F /  10.8 °C 30.3 in /  1024.9 hPa Calm   2 mph /  3.2 km/h 62 % 0 in /  0.0 mm
20:17 76.1 °F /  24.5 °C 43.3 °F /  6.3 °C 30.3 in /  1024.9 hPa SW 4.6 mph /  7.4 km/h 4.6 mph /  7.4 km/h 31 % 0 in /  0.0 mm
20:22 75.7 °F /  24.3 °C 43 °F /  6.1 °C 30.3 in /  1024.9 hPa SSW 5.8 mph /  9.3 km/h 5.8 mph /  9.3 km/h 31 % 0 in /  0.0 mm
20:25 64.6 °F /  18.1 °C 51.3 °F /  10.7 °C 30.3 in /  1026.0 hPa Calm   1 mph /  1.6 km/h 62 % 0 in /  0.0 mm
20:27 75.4 °F /  24.1 °C 42.6 °F /  5.9 °C 30.3 in /  1026.0 hPa SSW 3.5 mph /  5.6 km/h 3.5 mph /  5.6 km/h 31 % 0 in /  0.0 mm
20:32 75 °F /  23.9 °C 42.3 °F /  5.7 °C 30.3 in /  1026.0 hPa SW 4.6 mph /  7.4 km/h 4.6 mph /  7.4 km/h 31 % 0 in /  0.0 mm
20:37 74.7 °F /  23.7 °C 42.8 °F /  6.0 °C 30.3 in /  1026.0 hPa SSW 4.6 mph /  7.4 km/h 4.6 mph /  7.4 km/h 32 % 0 in /  0.0 mm
20:42 74.3 °F /  23.5 °C 42.4 °F /  5.8 °C 30.3 in /  1026.0 hPa SW 2.3 mph /  3.7 km/h 2.3 mph /  3.7 km/h 32 % 0 in /  0.0 mm
20:45 63.9 °F /  17.7 °C 51.1 °F /  10.6 °C 30.3 in /  1026.0 hPa Calm   2 mph /  3.2 km/h 63 % 0 in /  0.0 mm
20:47 73.9 °F /  23.3 °C 42.3 °F /  5.7 °C 30.3 in /  1026.0 hPa SW 3.5 mph /  5.6 km/h 3.5 mph /  5.6 km/h 32 % 0 in /  0.0 mm
20:52 73.4 °F /  23.0 °C 42.4 °F /  5.8 °C 30.3 in /  1026.0 hPa South 4.6 mph /  7.4 km/h 4.6 mph /  7.4 km/h 33 % 0 in /  0.0 mm
20:55 63.5 °F /  17.5 °C 50.7 °F /  10.4 °C 30.3 in /  1026.0 hPa NE 1 mph /  1.6 km/h 1 mph /  1.6 km/h 63 % 0 in /  0.0 mm
20:57 73 °F /  22.8 °C 43 °F /  6.1 °C 30.2 in /  1023.9 hPa SW 2.9 mph /  4.7 km/h 2.9 mph /  4.7 km/h 34 % 0 in /  0.0 mm
21:02 72.9 °F /  22.7 °C 42.8 °F /  6.0 °C 30.2 in /  1023.9 hPa West 4.6 mph /  7.4 km/h 4.6 mph /  7.4 km/h 34 % 0 in /  0.0 mm
21:05 63.3 °F /  17.4 °C 49.6 °F /  9.8 °C 30.3 in /  1026.0 hPa Calm   1 mph /  1.6 km/h 61 % 0 in /  0.0 mm
21:07 72.5 °F /  22.5 °C 43.3 °F /  6.3 °C 30.2 in /  1023.9 hPa WSW 3.5 mph /  5.6 km/h 3.5 mph /  5.6 km/h 35 % 0 in /  0.0 mm
21:12 72.3 °F /  22.4 °C 43.9 °F /  6.6 °C 30.2 in /  1023.9 hPa SW 2.3 mph /  3.7 km/h 2.3 mph /  3.7 km/h 36 % 0 in /  0.0 mm
21:15 63.1 °F /  17.3 °C 49.8 °F /  9.9 °C 30.3 in /  1026.0 hPa Calm     62 % 0 in /  0.0 mm
21:17 72 °F /  22.2 °C 43.5 °F /  6.4 °C 30.2 in /  1023.9 hPa WSW 2.3 mph /  3.7 km/h 2.3 mph /  3.7 km/h 36 % 0 in /  0.0 mm
21:22 71.8 °F /  22.1 °C 44.1 °F /  6.7 °C 30.2 in /  1023.9 hPa SW 2.3 mph /  3.7 km/h 2.3 mph /  3.7 km/h 37 % 0 in /  0.0 mm
21:25 62.8 °F /  17.1 °C 49.6 °F /  9.8 °C 30.3 in /  1026.0 hPa SSE 1 mph /  1.6 km/h 2 mph /  3.2 km/h 62 % 0 in /  0.0 mm
21:27 71.6 °F /  22.0 °C 43.9 °F /  6.6 °C 30.2 in /  1023.9 hPa SW 2.3 mph /  3.7 km/h 2.3 mph /  3.7 km/h 37 % 0 in /  0.0 mm
21:32 71.4 °F /  21.9 °C 43.9 °F /  6.6 °C 30.2 in /  1023.9 hPa SW 2.3 mph /  3.7 km/h 2.3 mph /  3.7 km/h 37 % 0 in /  0.0 mm
21:35 62.6 °F /  17.0 °C 50.2 °F /  10.1 °C 30.3 in /  1026.0 hPa Calm   1 mph /  1.6 km/h 64 % 0 in /  0.0 mm
21:37 71.2 °F /  21.8 °C 44.2 °F /  6.8 °C 30.2 in /  1023.9 hPa Calm     38 % 0 in /  0.0 mm
21:42 71.1 °F /  21.7 °C 44.2 °F /  6.8 °C 30.2 in /  1023.9 hPa West 1.2 mph /  1.9 km/h   38 % 0 in /  0.0 mm
21:45 62.4 °F /  16.9 °C 50.5 °F /  10.3 °C 30.3 in /  1024.9 hPa South 1 mph /  1.6 km/h 1 mph /  1.6 km/h 65 % 0 in /  0.0 mm
21:47 70.9 °F /  21.6 °C 44.1 °F /  6.7 °C 30.2 in /  1023.9 hPa West 1.4 mph /  2.3 km/h   38 % 0 in /  0.0 mm
21:52 70.7 °F /  21.5 °C 44.4 °F /  6.9 °C 30.2 in /  1023.9 hPa Calm     39 % 0 in /  0.0 mm
21:55 62.2 °F /  16.8 °C 50.4 °F /  10.2 °C 30.3 in /  1024.9 hPa East 1 mph /  1.6 km/h 2 mph /  3.2 km/h 65 % 0 in /  0.0 mm
21:57 70.3 °F /  21.3 °C 44.2 °F /  6.8 °C 30.3 in /  1024.9 hPa Calm     39 % 0 in /  0.0 mm
22:02 70.3 °F /  21.3 °C 44.2 °F /  6.8 °C 30.3 in /  1024.9 hPa Calm     39 % 0 in /  0.0 mm
22:05 62.1 °F /  16.7 °C 49.6 °F /  9.8 °C 30.3 in /  1024.9 hPa Calm   1 mph /  1.6 km/h 64 % 0 in /  0.0 mm
22:07 70.2 °F /  21.2 °C 44.1 °F /  6.7 °C 30.3 in /  1024.9 hPa Calm     39 % 0 in /  0.0 mm
22:12 70 °F /  21.1 °C 44.4 °F /  6.9 °C 30.3 in /  1024.9 hPa Calm     40 % 0 in /  0.0 mm
22:15 61.9 °F /  16.6 °C 49.6 °F /  9.8 °C 30.2 in /  1023.9 hPa Calm   2 mph /  3.2 km/h 64 % 0 in /  0.0 mm
22:17 69.8 °F /  21.0 °C 44.4 °F /  6.9 °C 30.3 in /  1024.9 hPa Calm     40 % 0 in /  0.0 mm
22:22 69.6 °F /  20.9 °C 45 °F /  7.2 °C 30.3 in /  1024.9 hPa Calm     41 % 0 in /  0.0 mm
22:25 61.2 °F /  16.2 °C 49.3 °F /  9.6 °C 30.2 in /  1023.9 hPa Calm   1 mph /  1.6 km/h 65 % 0 in /  0.0 mm
22:27 69.4 °F /  20.8 °C 44.8 °F /  7.1 °C 30.3 in /  1026.0 hPa West 1.2 mph /  1.9 km/h   41 % 0 in /  0.0 mm
22:32 69.4 °F /  20.8 °C 45.3 °F /  7.4 °C 30.3 in /  1026.0 hPa West 1.2 mph /  1.9 km/h   42 % 0 in /  0.0 mm
22:35 60.6 °F /  15.9 °C 48.7 °F /  9.3 °C 30.2 in /  1023.9 hPa Calm   1 mph /  1.6 km/h 65 % 0 in /  0.0 mm
22:37 69.3 °F /  20.7 °C 45.1 °F /  7.3 °C 30.3 in /  1026.0 hPa West 1.2 mph /  1.9 km/h   42 % 0 in /  0.0 mm
22:42 69.1 °F /  20.6 °C 45 °F /  7.2 °C 30.3 in /  1026.0 hPa Calm     42 % 0 in /  0.0 mm
22:45 60.3 °F /  15.7 °C 48.9 °F /  9.4 °C 30.2 in /  1023.9 hPa Calm   2 mph /  3.2 km/h 66 % 0 in /  0.0 mm
22:47 69.1 °F /  20.6 °C 45.7 °F /  7.6 °C 30.3 in /  1026.0 hPa Calm     43 % 0 in /  0.0 mm
22:52 68.9 °F /  20.5 °C 45.5 °F /  7.5 °C 30.3 in /  1026.0 hPa West 1.2 mph /  1.9 km/h   43 % 0 in /  0.0 mm
22:55 60.1 °F /  15.6 °C 48.7 °F /  9.3 °C 30.2 in /  1023.9 hPa Calm     66 % 0 in /  0.0 mm
22:57 68.7 °F /  20.4 °C 45.9 °F /  7.7 °C 30.3 in /  1026.0 hPa East 2.3 mph /  3.7 km/h 2.3 mph /  3.7 km/h 44 % 0 in /  0.0 mm
23:02 68.7 °F /  20.4 °C 45.9 °F /  7.7 °C 30.3 in /  1026.0 hPa East 1.2 mph /  1.9 km/h 1.2 mph /  1.9 km/h 44 % 0 in /  0.0 mm
23:05 60.1 °F /  15.6 °C 48.7 °F /  9.3 °C 30.2 in /  1023.9 hPa Calm     66 % 0 in /  0.0 mm
23:07 68.4 °F /  20.2 °C 46.8 °F /  8.2 °C 30.3 in /  1026.0 hPa East 1.2 mph /  1.9 km/h   46 % 0 in /  0.0 mm
23:12 68.2 °F /  20.1 °C 47.7 °F /  8.7 °C 30.3 in /  1026.0 hPa Calm     48 % 0 in /  0.0 mm
23:15 60.3 °F /  15.7 °C 48.9 °F /  9.4 °C 30.2 in /  1023.9 hPa Calm     66 % 0 in /  0.0 mm
23:17 68 °F /  20.0 °C 48 °F /  8.9 °C 30.3 in /  1026.0 hPa Calm     49 % 0 in /  0.0 mm
23:22 67.8 °F /  19.9 °C 48.6 °F /  9.2 °C 30.3 in /  1026.0 hPa East 0.9 mph /  1.4 km/h   50 % 0 in /  0.0 mm
23:25 60.1 °F /  15.6 °C 48.7 °F /  9.3 °C 30.2 in /  1023.9 hPa WSW 1 mph /  1.6 km/h 2 mph /  3.2 km/h 66 % 0 in /  0.0 mm
23:27 67.6 °F /  19.8 °C 48.4 °F /  9.1 °C 30.3 in /  1026.0 hPa Calm     50 % 0 in /  0.0 mm
23:32 67.1 °F /  19.5 °C 47.8 °F /  8.8 °C 30.3 in /  1026.0 hPa Calm     50 % 0 in /  0.0 mm
23:35 59.5 °F /  15.3 °C 48.6 °F /  9.2 °C 30.2 in /  1023.9 hPa Calm     67 % 0 in /  0.0 mm
23:37 66.9 °F /  19.4 °C 47.7 °F /  8.7 °C 30.3 in /  1026.0 hPa Calm     50 % 0 in /  0.0 mm
23:42 66.7 °F /  19.3 °C 47.5 °F /  8.6 °C 30.3 in /  1026.0 hPa Calm     50 % 0 in /  0.0 mm
23:45 59.4 °F /  15.2 °C 48.4 °F /  9.1 °C 30.2 in /  1023.9 hPa Calm     67 % 0 in /  0.0 mm
23:47 66.6 °F /  19.2 °C 47.8 °F /  8.8 °C 30.3 in /  1026.0 hPa Calm     51 % 0 in /  0.0 mm
23:52 66.4 °F /  19.1 °C 47.7 °F /  8.7 °C 30.3 in /  1026.0 hPa SSW 1.6 mph /  2.6 km/h 1.6 mph /  2.6 km/h 51 % 0 in /  0.0 mm
23:55 59.2 °F /  15.1 °C 48.2 °F /  9.0 °C 30.2 in /  1023.9 hPa Calm     67 % 0 in /  0.0 mm
23:57 66.2 °F /  19.0 °C 48 °F /  8.9 °C 30.3 in /  1026.0 hPa SSW 1.2 mph /  1.9 km/h 1.2 mph /  1.9 km/h 52 % 0 in /  0.0 mm
Meteo Sesrovires
Elogis d' Weather Underground - 3.75 mb

Guio original per  Jim McMurry - jmcmurry@mwt.net Adaptat per a la plantilla per  Wim van der Kuil - Leuven-Template.eu

Trobareu la nostra informacio del temps tambe a:

Weather Underground

AWEKAS